Pagrindinis puslapis
METAR-TAF:

METAR-TAF

Oro uostai :

Adak Island, Aliaska, Jungtinės Amerikos Valstijos

platuma: 51-52-40N, ilguma: 176-38-45W, Aukštis: 6 m

Dabartinis oras

Ataskaita buvo paskelbta 36 minutes, ne 03:56 UTC
Vėjas 3 kt iš Šiaurės/Šiaurės Rytų
Temperatūra -4°C
Drėgmė 74%
Slėgis 1004 hPa
Matomumas: 16.1 km
Giedras dangus

METAR: PADK 200356Z AUTO 02003KT 10SM CLR M04/M08 A2966 RMK AO2 SLP045 T10441083 FZRANO

Laikas: 19:32 (04:32 UTC)


TAF: trūkstamas

Orai ataskaitas ir orų prognozės (METAR, TAF).

turimą stotys yra geltonos ir raudonos taškus žemėlapyje.

Perkelti pele per norėdami pamatyti stoties vardą.

Tada spustelėkite, norėdami matyti oro stebėjimo ir prognozės.

Norėdami pakeisti žemėlapį: spustelėkite ant žalios mygtukų su juodo kryžiaus žemyn,; žalią mygtuką su brūkšneliu, jei norite nutolinti; arba žalių rodyklių gretimoms žemėlapius.


METAR-TAF: